Time;durP1;ratioP1;P1;durP2;ratioP2;P2;SDS_P1;SDS_P2;PMS_P1;PMS_P2;Temp;Humidity;BMP_temperature;BMP_pressure;BME280_temperature;BME280_humidity;BME280_pressure;Samples;Min_cycle;Max_cycle;Signal;HPM_P1;HPM_P2
2021/12/14 00:01:21;;;;;;;;;28.25;26.00;;;;;7.66;90.62;101911.56;5060216;28;45325;-67
2021/12/14 00:03:50;;;;;;;;;33.25;26.00;;;;;7.67;90.53;101921.16;5061457;28;45405;-71
2021/12/14 00:06:19;;;;;;;;;29.00;23.75;;;;;7.62;90.66;101908.13;5060381;28;46724;-69
2021/12/14 00:08:55;;;;;;;;;30.75;22.75;;;;;7.64;90.70;101908.09;5061770;28;45261;-67
2021/12/14 00:16:37;;;;;;;;;33.50;27.00;;;;;7.64;90.16;101890.66;5057543;28;45326;-68
2021/12/14 00:19:03;;;;;;;;;32.50;28.00;;;;;7.68;90.34;101883.63;5057785;28;45444;-67
2021/12/14 00:21:30;;;;;;;;;28.50;26.00;;;;;7.67;90.58;101885.41;5059127;28;45342;-68
2021/12/14 00:24:10;;;;;;;;;28.00;23.75;;;;;7.65;90.18;101889.78;5059750;28;45350;-70
2021/12/14 00:26:49;;;;;;;;;32.00;22.75;;;;;7.62;90.45;101902.88;5058525;28;46126;-69
2021/12/14 00:29:25;;;;;;;;;33.25;26.75;;;;;7.54;89.93;101915.16;5060278;28;45244;-69
2021/12/14 00:31:52;;;;;;;;;31.75;26.00;;;;;7.48;90.92;101905.56;5060553;28;45334;-63
2021/12/14 00:34:24;;;;;;;;;31.50;26.00;;;;;7.48;91.30;101904.72;5061028;28;45473;-70
2021/12/14 00:36:51;;;;;;;;;30.00;27.00;;;;;7.50;91.31;101892.50;5058574;28;45662;-68
2021/12/14 00:39:17;;;;;;;;;29.75;22.25;;;;;7.49;90.23;101880.28;5057871;28;45327;-68
2021/12/14 00:41:44;;;;;;;;;31.00;27.00;;;;;7.49;90.57;101885.53;5056988;28;45359;-65
2021/12/14 00:44:10;;;;;;;;;30.75;27.00;;;;;7.49;90.78;101901.22;5057563;28;45559;-69
2021/12/14 00:46:37;;;;;;;;;29.75;22.75;;;;;7.50;90.58;101897.72;5058245;28;45356;-67
2021/12/14 00:49:05;;;;;;;;;31.50;23.75;;;;;7.47;90.69;101893.38;5061192;28;45585;-69
2021/12/14 00:51:31;;;;;;;;;23.50;21.50;;;;;7.46;90.42;101886.41;5059654;28;45559;-66
2021/12/14 00:53:59;;;;;;;;;29.25;25.50;;;;;7.48;90.53;101883.78;5057716;28;45406;-65
2021/12/14 00:56:25;;;;;;;;;29.00;24.75;;;;;7.50;90.59;101889.88;5056762;28;45460;-70
2021/12/14 00:58:51;;;;;;;;;26.75;22.75;;;;;7.49;90.58;101889.00;5057072;28;45430;-69
2021/12/14 01:01:24;;;;;;;;;23.25;21.50;;;;;7.51;90.75;101889.84;5057806;28;45268;-66
2021/12/14 01:03:55;;;;;;;;;25.00;24.00;;;;;7.53;90.87;101897.72;5058674;28;45371;-69
2021/12/14 01:06:24;;;;;;;;;23.25;20.75;;;;;7.52;90.49;101895.97;5057897;28;47061;-67
2021/12/14 01:08:51;;;;;;;;;20.75;18.50;;;;;7.45;90.24;101889.88;5056225;28;45699;-62
2021/12/14 01:11:29;;;;;;;;;21.50;19.00;;;;;7.49;91.33;101901.22;5056678;28;45291;-62
2021/12/14 01:14:03;;;;;;;;;26.00;21.00;;;;;7.48;90.77;101907.34;5056516;28;45475;-62
2021/12/14 01:16:51;;;;;;;;;22.00;20.50;;;;;7.39;91.07;101901.25;5055960;28;46516;-67
2021/12/14 01:19:25;;;;;;;;;27.00;19.00;;;;;7.24;90.87;101890.88;5056296;28;45319;-64
2021/12/14 01:27:06;;;;;;;;;14.25;13.25;;;;;7.13;91.28;101920.56;5056290;28;46120;-68
2021/12/14 01:29:32;;;;;;;;;19.75;15.50;;;;;7.13;91.25;101928.44;5056603;28;45153;-65
2021/12/14 01:32:00;;;;;;;;;19.75;17.00;;;;;7.09;92.19;101918.00;5057550;28;45342;-66
2021/12/14 01:34:30;;;;;;;;;16.50;15.25;;;;;7.06;91.40;101918.88;5059618;28;45467;-68
2021/12/14 01:36:59;;;;;;;;;17.50;15.00;;;;;7.05;91.20;101930.22;5056272;28;47109;-69
2021/12/14 01:42:01;;;;;;;;;18.25;16.00;;;;;6.95;92.42;101954.66;5056513;28;45203;-66
2021/12/14 01:44:36;;;;;;;;;16.75;14.50;;;;;6.93;92.28;101965.16;5054374;28;45390;-67
2021/12/14 01:47:14;;;;;;;;;21.00;20.00;;;;;6.91;91.76;101952.94;5056055;28;45475;-68
2021/12/14 01:49:40;;;;;;;;;23.25;18.75;;;;;6.94;91.52;101952.91;5056033;28;45505;-69
2021/12/14 01:52:12;;;;;;;;;22.75;19.75;;;;;6.96;91.94;101962.53;5056038;28;45303;-67
2021/12/14 01:54:42;;;;;;;;;24.25;19.75;;;;;7.00;92.34;101963.38;5056169;28;45387;-65
2021/12/14 01:57:12;;;;;;;;;23.75;20.00;;;;;7.00;92.04;101966.88;5056084;28;45215;-68
2021/12/14 01:59:41;;;;;;;;;28.00;21.25;;;;;7.03;92.44;101971.19;5054065;28;45407;-67
2021/12/14 02:02:23;;;;;;;;;29.25;20.75;;;;;7.00;92.67;101976.44;5055775;28;45508;-67
2021/12/14 02:04:52;;;;;;;;;25.50;23.25;;;;;6.98;92.08;101988.66;5056449;28;45314;-69
2021/12/14 02:07:19;;;;;;;;;30.00;24.00;;;;;6.91;92.75;101982.59;5058427;28;45432;-68
2021/12/14 02:09:51;;;;;;;;;28.00;26.50;;;;;6.93;92.98;101995.66;5057818;28;45295;-68
2021/12/14 02:12:20;;;;;;;;;29.00;26.00;;;;;6.93;93.82;102003.50;5056714;28;45239;-69
2021/12/14 02:14:47;;;;;;;;;29.25;25.00;;;;;6.91;93.78;102008.75;5056789;28;45723;-67
2021/12/14 02:17:15;;;;;;;;;27.50;21.50;;;;;6.89;93.21;102020.94;5056105;28;46300;-68
2021/12/14 02:19:41;;;;;;;;;23.75;18.25;;;;;6.84;92.53;102026.19;5057985;28;45201;-68
2021/12/14 02:22:08;;;;;;;;;22.25;19.50;;;;;6.79;93.63;102013.97;5060677;28;45290;-68
2021/12/14 02:24:37;;;;;;;;;22.25;18.75;;;;;6.74;92.69;102003.53;5059983;28;45700;-67
2021/12/14 02:27:03;;;;;;;;;15.75;12.50;;;;;6.72;93.12;102002.66;5076073;27;45468;-67
2021/12/14 02:29:32;;;;;;;;;18.25;16.25;;;;;6.72;93.05;101993.06;5060037;28;45451;-68
2021/12/14 02:32:09;;;;;;;;;17.25;17.25;;;;;6.75;92.76;101986.97;5060293;28;45437;-64
2021/12/14 02:34:45;;;;;;;;;15.25;14.25;;;;;6.75;94.31;101970.38;5060748;28;45170;-68
2021/12/14 02:37:11;;;;;;;;;16.50;16.25;;;;;6.80;93.05;101971.25;5060014;28;45432;-67
2021/12/14 02:42:04;;;;;;;;;19.75;16.50;;;;;6.78;93.05;101947.72;5060783;28;45437;-66
2021/12/14 02:44:30;;;;;;;;;20.75;14.50;;;;;6.81;93.43;101954.69;5060704;28;45541;-66
2021/12/14 02:47:00;;;;;;;;;17.00;17.00;;;;;6.83;93.37;101969.50;5062008;28;46268;-66
2021/12/14 02:49:30;;;;;;;;;20.25;18.00;;;;;6.80;92.86;101969.53;5061071;28;45462;-65
2021/12/14 02:52:03;;;;;;;;;19.25;13.75;;;;;6.81;92.96;101967.75;5060483;28;45452;-67
2021/12/14 02:54:54;;;;;;;;;17.75;15.25;;;;;6.76;93.19;101957.31;5061030;28;45485;-66
2021/12/14 02:57:24;;;;;;;;;19.50;15.75;;;;;6.81;92.92;101976.50;5061448;28;45291;-69
2021/12/14 02:59:51;;;;;;;;;22.50;16.50;;;;;6.81;93.95;101967.75;5061844;28;45402;-68
2021/12/14 03:02:28;;;;;;;;;18.50;13.75;;;;;6.80;93.68;101963.41;5062410;28;45236;-67
2021/12/14 03:04:58;;;;;;;;;24.50;21.75;;;;;6.82;93.99;101952.09;5062232;28;45237;-70
2021/12/14 03:07:29;;;;;;;;;26.75;22.25;;;;;6.85;93.25;101948.56;5062717;28;45481;-67
2021/12/14 03:10:17;;;;;;;;;24.00;20.75;;;;;6.85;93.30;101941.63;5060250;28;45300;-70
2021/12/14 03:12:46;;;;;;;;;25.75;21.25;;;;;6.86;93.47;101945.97;5059898;28;45345;-66
2021/12/14 03:15:17;;;;;;;;;28.75;24.00;;;;;6.90;93.20;101927.66;5059825;28;45553;-66
2021/12/14 03:17:43;;;;;;;;;30.75;22.25;;;;;6.92;92.97;101925.91;5059166;28;47078;-67
2021/12/14 03:20:16;;;;;;;;;29.50;21.00;;;;;6.96;92.82;101925.00;5059638;28;45463;-67
2021/12/14 03:22:46;;;;;;;;;25.00;20.50;;;;;7.01;92.72;101928.47;5059869;28;45387;-69
2021/12/14 03:25:15;;;;;;;;;30.75;20.50;;;;;7.05;92.96;101931.97;5058241;28;45210;-66
2021/12/14 03:27:43;;;;;;;;;27.25;24.25;;;;;7.07;92.71;101931.06;5059231;28;47080;-65
2021/12/14 03:30:25;;;;;;;;;33.25;26.00;;;;;7.11;92.92;101929.31;5058815;28;45326;-66
2021/12/14 03:32:55;;;;;;;;;28.00;23.00;;;;;7.18;92.91;101930.16;5059178;28;45339;-64
2021/12/14 03:35:37;;;;;;;;;30.75;22.50;;;;;7.21;92.84;101930.13;5059660;28;45346;-65
2021/12/14 03:38:15;;;;;;;;;31.00;22.75;;;;;7.23;92.31;101929.28;5058128;28;46464;-63
2021/12/14 03:40:41;;;;;;;;;29.50;26.00;;;;;7.26;92.39;101921.41;5057324;28;45203;-67
2021/12/14 03:43:07;;;;;;;;;31.75;28.25;;;;;7.23;92.30;101910.06;5056685;28;45310;-68
2021/12/14 03:45:33;;;;;;;;;32.25;22.75;;;;;7.24;92.20;101914.44;5057600;28;45507;-64
2021/12/14 03:48:01;;;;;;;;;28.75;24.50;;;;;7.26;92.32;101912.66;5057732;28;46197;-63
2021/12/14 03:50:30;;;;;;;;;34.75;28.25;;;;;7.25;91.90;101919.66;5061905;27;45316;-65
2021/12/14 03:52:56;;;;;;;;;32.50;25.50;;;;;7.24;91.95;101920.53;5063234;28;45398;-67
2021/12/14 03:55:29;;;;;;;;;32.50;27.00;;;;;7.27;92.53;101922.25;5058004;28;45579;-62
2021/12/14 03:57:54;;;;;;;;;35.75;31.25;;;;;7.26;91.96;101918.78;5057324;28;45403;-67
2021/12/14 04:00:38;;;;;;;;;32.25;27.25;;;;;7.25;92.08;101916.16;5057685;28;45452;-66
2021/12/14 04:03:09;;;;;;;;;35.50;29.50;;;;;7.24;92.70;101897.00;5057722;28;45327;-63
2021/12/14 04:05:36;;;;;;;;;35.00;27.00;;;;;7.30;92.38;101902.19;5058164;28;45425;-65
2021/12/14 04:08:02;;;;;;;;;32.50;28.00;;;;;7.35;92.47;101889.06;5057900;28;46549;-67
2021/12/14 04:10:31;;;;;;;;;31.25;27.00;;;;;7.37;91.55;101889.06;5058675;28;45469;-65
2021/12/14 04:12:58;;;;;;;;;32.50;28.50;;;;;7.41;91.50;101903.88;5058356;28;45442;-67
2021/12/14 04:15:23;;;;;;;;;28.50;27.25;;;;;7.43;91.05;101891.66;5058120;28;45394;-68
2021/12/14 04:17:50;;;;;;;;;27.75;24.50;;;;;7.49;91.10;101893.38;5056359;28;47146;-68
2021/12/14 04:20:21;;;;;;;;;32.00;26.75;;;;;7.47;91.35;101906.47;5058023;28;45233;-67
2021/12/14 04:22:48;;;;;;;;;33.75;28.50;;;;;7.46;91.27;101909.97;5058042;28;45445;-65
2021/12/14 04:25:17;;;;;;;;;28.50;23.00;;;;;7.51;90.90;101917.78;5057709;28;45411;-67
2021/12/14 04:27:44;;;;;;;;;25.25;22.00;;;;;7.52;90.64;101937.88;5056928;28;46301;-67
2021/12/14 04:30:13;;;;;;;;;26.50;25.75;;;;;7.49;90.05;101930.03;5058006;28;45396;-67
2021/12/14 04:32:38;;;;;;;;;33.00;24.75;;;;;7.43;89.97;101931.81;5059025;28;45407;-68
2021/12/14 04:35:06;;;;;;;;;30.00;26.75;;;;;7.43;90.52;101933.53;5060956;28;45236;-64
2021/12/14 04:37:37;;;;;;;;;30.75;28.50;;;;;7.45;90.76;101937.91;5059584;28;46724;-70
2021/12/14 04:40:35;;;;;;;;;29.25;25.50;;;;;7.42;90.59;101932.69;5058450;28;45413;-66
2021/12/14 04:54:08;;;;;;;;;40.25;30.25;;;;;7.50;90.56;101929.16;5057934;28;45261;-66
2021/12/14 04:56:38;;;;;;;;;31.75;27.25;;;;;7.45;90.05;101935.28;5057129;28;45431;-66
2021/12/14 04:59:20;;;;;;;;;37.00;27.00;;;;;7.40;90.51;101934.41;5056593;28;46258;-69
2021/12/14 05:01:48;;;;;;;;;29.75;22.25;;;;;7.39;91.25;101924.81;5056510;28;45456;-67
2021/12/14 05:04:21;;;;;;;;;29.25;26.00;;;;;7.40;90.30;101929.16;5056240;28;45432;-62
2021/12/14 05:07:02;;;;;;;;;32.75;28.50;;;;;7.40;91.00;101937.03;5056480;28;45345;-62
2021/12/14 05:09:33;;;;;;;;;33.25;29.00;;;;;7.40;90.52;101926.56;5056487;28;45642;-68
2021/12/14 05:12:06;;;;;;;;;37.75;31.00;;;;;7.43;91.74;101933.53;5056751;28;45402;-67
2021/12/14 05:14:34;;;;;;;;;38.25;30.75;;;;;7.50;91.91;101923.91;5057357;28;45381;-67
2021/12/14 05:17:05;;;;;;;;;31.50;29.25;;;;;7.53;91.08;101922.13;5058928;28;45440;-66
2021/12/14 05:19:33;;;;;;;;;31.75;28.75;;;;;7.53;90.43;101934.38;5057352;28;46344;-68
2021/12/14 05:22:04;;;;;;;;;29.50;27.25;;;;;7.50;90.90;101922.16;5057032;28;45342;-68
2021/12/14 05:24:30;;;;;;;;;33.25;27.50;;;;;7.51;90.80;101921.28;5058375;28;45402;-68
2021/12/14 05:27:05;;;;;;;;;36.00;32.25;;;;;7.56;91.43;101926.50;5056643;28;45199;-67
2021/12/14 05:29:32;;;;;;;;;37.50;31.25;;;;;7.54;91.32;101926.50;5057021;28;45392;-68
2021/12/14 05:32:00;;;;;;;;;37.00;30.75;;;;;7.54;91.13;101930.88;5058658;28;45344;-67
2021/12/14 05:34:28;;;;;;;;;36.25;32.25;;;;;7.50;90.87;101937.00;5060429;28;45362;-70
2021/12/14 05:36:54;;;;;;;;;38.00;31.50;;;;;7.41;91.21;101938.75;5057903;28;45248;-69
2021/12/14 05:44:39;;;;;;;;;38.50;31.00;;;;;7.22;91.35;101940.63;5056755;28;45342;-70
2021/12/14 05:47:10;;;;;;;;;35.00;28.25;;;;;7.18;91.35;101928.44;5057404;28;45258;-67
2021/12/14 05:49:38;;;;;;;;;31.00;29.00;;;;;7.16;92.58;101941.50;5058538;28;46109;-66
2021/12/14 05:52:27;;;;;;;;;35.50;28.50;;;;;7.12;92.84;101931.91;5057257;28;45262;-68
2021/12/14 05:54:54;;;;;;;;;42.25;33.50;;;;;7.13;92.20;101935.44;5056510;28;45326;-67
2021/12/14 05:57:23;;;;;;;;;35.00;31.50;;;;;7.12;92.14;101933.69;5060314;28;45444;-67
2021/12/14 05:59:49;;;;;;;;;34.50;29.50;;;;;7.07;93.04;101944.16;5076128;28;46117;-69
2021/12/14 06:02:15;;;;;;;;;29.25;26.50;;;;;7.06;92.05;101958.13;5060694;28;45178;-68
2021/12/14 06:04:44;;;;;;;;;32.50;26.00;;;;;7.03;92.98;101952.88;5060107;28;45231;-70
2021/12/14 06:07:11;;;;;;;;;29.50;24.50;;;;;6.99;92.75;101943.31;5059000;28;45380;-64
2021/12/14 06:09:39;;;;;;;;;34.50;30.00;;;;;6.97;92.06;101955.53;5061176;28;46257;-67
2021/12/14 06:12:13;;;;;;;;;26.00;25.25;;;;;6.96;93.44;101956.41;5062507;28;45267;-69
2021/12/14 06:14:50;;;;;;;;;30.25;25.25;;;;;6.92;93.35;101971.25;5060833;28;45276;-63
2021/12/14 06:17:19;;;;;;;;;32.50;26.50;;;;;6.80;92.38;101974.75;5060310;28;45314;-69
2021/12/14 06:19:51;;;;;;;;;27.00;22.75;;;;;6.78;93.13;101981.72;5061311;28;46657;-70
2021/12/14 06:22:19;;;;;;;;;24.50;22.25;;;;;6.75;92.85;101986.09;5065149;28;45386;-68
2021/12/14 06:24:56;;;;;;;;;32.50;27.75;;;;;6.59;92.83;101970.41;5063904;28;45307;-69
2021/12/14 06:27:24;;;;;;;;;31.25;22.75;;;;;6.69;92.94;101990.44;5061341;28;45161;-69
2021/12/14 06:29:59;;;;;;;;;32.00;26.75;;;;;6.66;93.64;101997.44;5058884;28;47295;-69
2021/12/14 06:32:30;;;;;;;;;29.75;24.25;;;;;6.64;93.02;101993.97;5059227;28;45185;-67
2021/12/14 06:35:05;;;;;;;;;30.25;25.75;;;;;6.63;93.36;101994.84;5059757;28;45351;-70
2021/12/14 06:40:10;;;;;;;;;28.00;24.50;;;;;6.63;93.82;101987.84;5059301;28;46228;-61
2021/12/14 06:43:04;;;;;;;;;31.00;26.00;;;;;6.67;94.00;102002.66;5059047;28;45252;-64
2021/12/14 06:45:40;;;;;;;;;29.50;26.25;;;;;6.68;92.87;102006.16;5056546;28;45210;-65
2021/12/14 06:48:13;;;;;;;;;29.50;26.25;;;;;6.73;94.07;102014.88;5059526;28;45203;-64
2021/12/14 06:51:05;;;;;;;;;34.75;25.00;;;;;6.81;94.26;102001.75;5058780;28;46273;-63
2021/12/14 06:53:31;;;;;;;;;33.50;25.75;;;;;6.84;92.97;102013.09;5051595;28;45374;-65
2021/12/14 06:55:59;;;;;;;;;33.25;28.75;;;;;6.89;92.88;102009.63;5059377;28;45356;-65
2021/12/14 06:58:31;;;;;;;;;32.00;29.25;;;;;6.93;92.65;102007.00;5058563;28;45378;-67
2021/12/14 07:00:59;;;;;;;;;52.75;38.25;;;;;6.98;93.18;102009.59;5058161;28;45264;-69
2021/12/14 07:03:41;;;;;;;;;33.25;28.00;;;;;7.05;93.24;102018.31;5058134;28;45327;-65
2021/12/14 07:06:07;;;;;;;;;33.75;28.50;;;;;7.12;93.33;102017.41;5058032;28;45330;-69
2021/12/14 07:08:33;;;;;;;;;30.50;28.25;;;;;7.12;91.99;102001.72;5057835;28;45404;-69
2021/12/14 07:10:59;;;;;;;;;20.00;19.50;;;;;7.17;92.18;102023.50;5057896;28;46235;-69
2021/12/14 07:13:36;;;;;;;;;29.50;25.25;;;;;7.18;92.03;102016.50;5058114;28;45336;-69
2021/12/14 07:16:12;;;;;;;;;28.25;22.75;;;;;7.16;91.97;102003.44;5058334;28;45304;-70
2021/12/14 07:18:40;;;;;;;;;32.00;29.75;;;;;7.19;91.72;102008.69;5056960;28;45426;-65
2021/12/14 07:21:06;;;;;;;;;33.50;25.75;;;;;7.17;92.17;102002.56;5057709;28;45469;-70
2021/12/14 07:23:35;;;;;;;;;31.25;28.50;;;;;7.23;92.04;102009.53;5057812;28;45876;-68
2021/12/14 07:26:18;;;;;;;;;28.50;21.25;;;;;7.30;92.35;102009.50;5057817;28;45453;-69
2021/12/14 07:28:45;;;;;;;;;28.00;24.75;;;;;7.39;91.79;102015.59;5058553;28;45402;-69
2021/12/14 07:31:16;;;;;;;;;29.50;27.00;;;;;7.45;91.75;102019.06;5058358;28;46650;-67
2021/12/14 07:33:52;;;;;;;;;34.00;31.75;;;;;7.48;91.53;102015.53;5060879;28;45238;-69
2021/12/14 07:36:24;;;;;;;;;33.50;29.00;;;;;7.57;91.55;102014.66;5059994;28;45322;-69
2021/12/14 07:38:55;;;;;;;;;37.50;31.00;;;;;7.59;91.85;102021.59;5058566;28;45449;-68
2021/12/14 07:41:26;;;;;;;;;48.25;38.50;;;;;7.67;91.71;102025.94;5061378;28;45234;-69
2021/12/14 07:44:04;;;;;;;;;40.25;30.75;;;;;7.70;91.15;102021.56;5060681;28;45288;-69
2021/12/14 07:46:36;;;;;;;;;32.25;30.00;;;;;7.71;90.97;102018.06;5073082;28;45442;-68
2021/12/14 07:49:18;;;;;;;;;32.00;29.50;;;;;7.69;90.81;102013.69;5080097;27;45759;-68
2021/12/14 07:51:45;;;;;;;;;45.50;32.75;;;;;7.84;91.54;102031.09;5085040;27;46876;-61
2021/12/14 07:54:15;;;;;;;;;31.50;28.50;;;;;7.86;90.47;102027.56;5085888;27;45443;-66
2021/12/14 07:56:47;;;;;;;;;33.25;28.50;;;;;7.88;90.39;102048.53;5077394;27;45555;-67
2021/12/14 07:59:35;;;;;;;;;31.50;24.00;;;;;7.83;89.29;102037.22;5067438;28;45384;-69
2021/12/14 08:02:19;;;;;;;;;32.50;27.75;;;;;7.84;89.27;102050.28;5074884;28;46065;-65
2021/12/14 08:04:51;;;;;;;;;28.75;28.00;;;;;7.84;89.85;102046.81;5079992;27;45271;-80
2021/12/14 08:07:37;;;;;;;;;33.25;26.50;;;;;7.88;90.37;102051.16;5070770;27;45179;-75
2021/12/14 08:10:13;;;;;;;;;31.25;27.25;;;;;7.86;89.54;102064.25;5078324;28;45594;-72
2021/12/14 08:12:46;;;;;;;;;28.75;25.25;;;;;7.83;89.51;102066.88;5078028;27;45231;-74
2021/12/14 08:15:21;;;;;;;;;25.75;22.50;;;;;7.82;89.53;102072.16;5077542;27;45225;-73
2021/12/14 08:17:59;;;;;;;;;32.00;29.00;;;;;7.80;89.91;102076.53;5076414;28;45520;-67
2021/12/14 08:20:26;;;;;;;;;29.75;25.50;;;;;7.83;89.87;102089.63;5076953;27;45331;-70
2021/12/14 08:22:57;;;;;;;;;31.75;24.75;;;;;7.82;90.13;102073.00;5077653;27;45357;-72
2021/12/14 08:25:28;;;;;;;;;28.75;23.25;;;;;7.82;88.83;102088.72;5076913;27;45442;-72
2021/12/14 08:28:00;;;;;;;;;34.50;25.75;;;;;7.81;89.44;102088.75;5082023;27;45279;-72
2021/12/14 08:30:27;;;;;;;;;30.25;24.25;;;;;7.83;90.37;102085.22;5077006;27;45283;-67
2021/12/14 08:32:52;;;;;;;;;27.25;25.75;;;;;7.86;89.47;102085.22;5076789;27;45679;-70
2021/12/14 08:35:18;;;;;;;;;30.50;25.25;;;;;7.85;89.48;102073.00;5077195;27;45365;-70
2021/12/14 08:37:52;;;;;;;;;30.25;26.75;;;;;7.93;88.68;102074.69;5076423;28;45386;-67
2021/12/14 08:40:22;;;;;;;;;32.25;25.75;;;;;7.93;88.94;102077.31;5076089;27;45474;-61
2021/12/14 08:43:04;;;;;;;;;25.75;23.00;;;;;7.92;88.94;102079.09;5076197;27;45441;-64
2021/12/14 08:45:34;;;;;;;;;28.00;25.00;;;;;7.94;88.85;102086.91;5074247;27;45495;-64
2021/12/14 08:48:02;;;;;;;;;24.00;20.50;;;;;7.97;89.32;102087.78;5075520;27;45491;-66
2021/12/14 08:50:30;;;;;;;;;35.75;26.00;;;;;8.02;89.17;102093.03;5076882;28;45442;-61
2021/12/14 08:52:56;;;;;;;;;30.50;26.00;;;;;8.04;88.12;102094.75;5076786;28;46477;-66
2021/12/14 08:55:25;;;;;;;;;36.00;30.00;;;;;8.03;88.40;102100.00;5078052;27;45409;-66
2021/12/14 08:57:51;;;;;;;;;35.00;27.25;;;;;8.02;88.53;102103.50;5076689;27;45233;-67
2021/12/14 09:00:30;;;;;;;;;29.25;26.50;;;;;8.03;88.83;102111.34;5077322;27;45533;-69
2021/12/14 09:03:00;;;;;;;;;35.25;28.00;;;;;8.04;88.27;102099.13;5076868;27;45664;-65
2021/12/14 09:05:43;;;;;;;;;34.50;30.25;;;;;8.06;88.81;102091.25;5076918;27;45237;-66
2021/12/14 09:08:09;;;;;;;;;29.00;24.50;;;;;8.15;88.57;102097.31;5075346;28;45360;-67
2021/12/14 09:10:38;;;;;;;;;32.00;25.25;;;;;8.18;88.39;102086.81;5077350;27;45508;-66
2021/12/14 09:13:07;;;;;;;;;31.75;26.75;;;;;8.27;88.26;102085.88;5076921;27;46307;-68
2021/12/14 09:15:54;;;;;;;;;27.75;20.50;;;;;8.36;88.58;102089.31;5077212;27;45287;-68
2021/12/14 09:18:20;;;;;;;;;34.50;26.25;;;;;8.44;88.29;102079.63;5076818;27;45275;-60
2021/12/14 09:21:00;;;;;;;;;30.00;27.25;;;;;8.54;87.99;102083.13;5082358;27;45427;-66
2021/12/14 09:23:30;;;;;;;;;32.25;27.75;;;;;8.60;88.32;102069.94;5076537;27;46162;-64
2021/12/14 09:25:56;;;;;;;;;28.50;26.00;;;;;8.78;87.26;102097.78;5076831;27;45247;-65
2021/12/14 09:28:22;;;;;;;;;28.75;23.00;;;;;8.81;86.43;102096.88;5077163;28;45591;-62
2021/12/14 09:30:55;;;;;;;;;33.00;28.25;;;;;8.86;86.30;102095.09;5077615;27;45353;-67
2021/12/14 09:33:21;;;;;;;;;28.00;25.25;;;;;8.93;86.24;102094.16;5077927;27;46123;-59
2021/12/14 09:35:48;;;;;;;;;26.25;24.50;;;;;8.99;86.01;102090.63;5077802;27;45844;-66
2021/12/14 09:38:18;;;;;;;;;27.50;26.00;;;;;9.00;85.71;102098.47;5076736;27;45313;-66
2021/12/14 09:40:52;;;;;;;;;63.50;47.25;;;;;9.12;86.21;102101.88;5076971;27;45345;-65
2021/12/14 09:43:19;;;;;;;;;35.25;28.75;;;;;9.14;84.99;102098.34;5076364;27;46083;-66
2021/12/14 09:45:52;;;;;;;;;35.75;29.00;;;;;9.14;84.79;102102.75;5076246;27;45153;-64
2021/12/14 09:48:28;;;;;;;;;30.25;25.25;;;;;9.15;84.74;102113.22;5075218;28;45303;-60
2021/12/14 09:50:56;;;;;;;;;34.00;26.00;;;;;9.13;84.73;102114.97;5077281;27;45270;-61
2021/12/14 09:53:26;;;;;;;;;29.00;26.00;;;;;9.11;84.70;102116.75;5077559;27;46113;-62
2021/12/14 09:55:54;;;;;;;;;31.25;28.00;;;;;9.07;84.42;102112.41;5075405;27;45347;-65
2021/12/14 09:58:24;;;;;;;;;29.75;27.00;;;;;9.03;84.66;102116.84;5076401;27;45373;-61
2021/12/14 10:00:58;;;;;;;;;28.25;26.00;;;;;9.00;84.59;102122.09;5080285;27;45446;-59
2021/12/14 10:03:25;;;;;;;;;36.00;28.50;;;;;9.00;84.84;102118.59;5076016;27;45332;-60
2021/12/14 10:05:55;;;;;;;;;33.25;29.00;;;;;9.00;84.76;102118.59;5077636;27;45392;-59
2021/12/14 10:08:27;;;;;;;;;34.00;27.50;;;;;9.02;84.99;102115.09;5077450;27;45351;-61
2021/12/14 10:11:04;;;;;;;;;37.00;29.50;;;;;9.04;84.54;102115.06;5077695;27;45460;-61
2021/12/14 10:13:33;;;;;;;;;32.25;30.25;;;;;9.05;84.35;102114.19;5076433;28;46210;-60
2021/12/14 10:16:00;;;;;;;;;30.75;27.25;;;;;9.06;84.43;102114.19;5076197;27;45347;-64
2021/12/14 10:18:42;;;;;;;;;37.00;31.25;;;;;9.08;84.39;102113.28;5076121;27;45387;-66
2021/12/14 10:21:13;;;;;;;;;29.00;25.50;;;;;9.09;84.48;102118.53;5077052;27;45494;-62
2021/12/14 10:23:40;;;;;;;;;19.50;11.50;;;;;9.12;84.37;102113.25;5078414;27;46266;-63
2021/12/14 10:26:08;;;;;;;;;27.75;25.25;;;;;9.16;84.46;102108.84;5078318;27;45385;-67
2021/12/14 10:28:36;;;;;;;;;33.00;29.00;;;;;9.24;84.32;102120.13;5077540;27;45374;-64
2021/12/14 10:31:08;;;;;;;;;35.00;31.00;;;;;9.31;84.03;102110.44;5078339;27;45587;-66
2021/12/14 10:33:35;;;;;;;;;37.50;30.25;;;;;9.35;83.93;102120.00;5077990;27;45370;-68
2021/12/14 10:36:17;;;;;;;;;35.25;27.25;;;;;9.40;84.15;102112.94;5078408;27;45267;-65
2021/12/14 10:39:04;;;;;;;;;30.50;28.50;;;;;9.44;83.86;102130.41;5077788;27;45463;-65
2021/12/14 10:44:12;;;;;;;;;33.25;31.25;;;;;9.37;83.89;102114.75;5079461;27;45321;-66
2021/12/14 10:46:45;;;;;;;;;39.25;33.00;;;;;9.52;83.77;102129.47;5083114;27;45389;-66
2021/12/14 10:49:12;;;;;;;;;38.75;32.00;;;;;9.57;83.70;102119.81;5080959;27;45437;-64
2021/12/14 10:51:41;;;;;;;;;45.75;37.75;;;;;9.65;83.55;102121.44;5080337;27;45280;-61
2021/12/14 10:54:10;;;;;;;;;34.75;30.00;;;;;9.76;83.74;102126.59;5079143;27;46550;-61
2021/12/14 10:56:58;;;;;;;;;43.75;35.50;;;;;9.90;83.43;102121.13;5079751;27;45408;-63
2021/12/14 10:59:32;;;;;;;;;43.25;33.00;;;;;10.04;82.79;102114.81;5078337;27;45358;-59
2021/12/14 11:01:58;;;;;;;;;34.00;32.00;;;;;10.09;82.77;102113.03;5078801;27;45271;-66
2021/12/14 11:04:38;;;;;;;;;43.25;33.50;;;;;10.23;82.10;102115.47;5078093;27;46101;-62
2021/12/14 11:07:11;;;;;;;;;39.75;32.75;;;;;10.32;81.83;102120.59;5077771;27;45427;-66
2021/12/14 11:09:42;;;;;;;;;39.75;33.75;;;;;10.32;81.47;102125.00;5078260;27;45339;-67
2021/12/14 11:12:36;;;;;;;;;34.75;29.75;;;;;10.38;81.07;102123.13;5078288;27;45428;-68
2021/12/14 11:15:13;;;;;;;;;36.25;30.00;;;;;10.33;80.82;102124.97;5074677;28;46256;-64
2021/12/14 11:20:35;;;;;;;;;54.00;43.50;;;;;10.34;81.72;102112.69;5078169;27;45424;-60
2021/12/14 11:23:22;;;;;;;;;51.50;42.00;;;;;10.37;80.95;102113.50;5078054;27;45414;-60
2021/12/14 11:25:51;;;;;;;;;36.00;30.25;;;;;10.41;80.48;102113.47;5077603;27;45437;-59
2021/12/14 11:28:25;;;;;;;;;38.50;31.50;;;;;10.40;80.94;102114.38;5078480;28;45399;-66
2021/12/14 11:31:01;;;;;;;;;42.25;33.00;;;;;10.40;80.65;102115.25;5077952;28;45213;-66
2021/12/14 11:33:34;;;;;;;;;34.25;30.75;;;;;10.33;79.64;102113.59;5081117;27;45325;-62
2021/12/14 11:36:17;;;;;;;;;50.75;40.00;;;;;10.28;80.82;102118.91;5078315;27;46345;-70
2021/12/14 11:38:58;;;;;;;;;40.75;32.75;;;;;10.32;80.21;102115.31;5077834;28;45357;-58
2021/12/14 11:41:32;;;;;;;;;42.00;33.00;;;;;10.34;81.03;102097.75;5078546;27;45421;-62
2021/12/14 11:44:15;;;;;;;;;40.75;32.00;;;;;10.35;80.19;102104.75;5079108;27;45322;-63
2021/12/14 11:46:55;;;;;;;;;39.75;32.75;;;;;10.30;80.19;102090.81;5077834;27;45332;-65
2021/12/14 11:49:24;;;;;;;;;53.25;40.25;;;;;10.25;80.12;102082.13;5077938;27;45445;-64
2021/12/14 11:51:51;;;;;;;;;48.00;35.75;;;;;10.38;80.47;102096.81;5078437;27;45308;-63
2021/12/14 11:54:20;;;;;;;;;45.50;35.75;;;;;10.41;79.90;102097.69;5077091;27;45619;-64
2021/12/14 11:56:48;;;;;;;;;43.00;33.50;;;;;10.44;80.97;102095.91;5077483;27;45673;-65
2021/12/14 11:59:15;;;;;;;;;35.75;31.25;;;;;10.53;80.14;102089.63;5077526;27;45325;-64
2021/12/14 12:01:45;;;;;;;;;37.75;33.00;;;;;10.54;79.51;102088.72;5077831;27;45465;-63
2021/12/14 12:04:16;;;;;;;;;38.00;32.00;;;;;10.47;79.18;102080.06;5078530;27;45451;-63
2021/12/14 12:09:36;;;;;;;;;40.75;33.25;;;;;10.48;80.26;102080.94;5078950;27;45317;-64
2021/12/14 12:12:05;;;;;;;;;42.25;35.25;;;;;10.53;79.93;102073.81;5078785;27;45388;-60
2021/12/14 12:14:51;;;;;;;;;42.00;35.75;;;;;10.58;79.46;102074.63;5080132;27;45569;-62
2021/12/14 12:17:24;;;;;;;;;43.50;36.75;;;;;10.62;79.89;102078.09;5081599;27;45440;-67
2021/12/14 12:20:25;;;;;;;;;55.50;45.75;;;;;10.66;79.13;102080.66;5078337;27;45417;-68